logo tempoitalia

Diretta Meteo Luqa, Maltalunedì 31 agosto ore 07:15

Mappa
Sereno 28 °C Sereno 24 Ore: T.min 27 T.max 40
Ponente Ovest Km/h 7.4 Punto di rugiada: 23 °C Umidità: 74% Visibilità: 10 Km
Il sole sorge alle: 06:33 Il sole tramonta alle: 19:31
31 Agosto 2026 07:15 tempo osservato: Sereno Sereno 28 74 1015 vento: Nord O 7.4
31 Agosto 2026 06:45 tempo osservato: Sereno Sereno 27 78 1015 vento: Nord SO 7.4
31 Agosto 2026 06:15 tempo osservato: Sereno Sereno 27 74 1015 vento: Nord N 3.7
31 Agosto 2026 05:45 tempo osservato: Sereno Sereno 27 78 1015 vento: Nord N 3.7
31 Agosto 2026 05:15 tempo osservato: Sereno Sereno 28 78 1015 vento: Nord N 3.7
31 Agosto 2026 04:45 tempo osservato: Sereno Sereno 28 78 1015 vento: Nord N 3.7
31 Agosto 2026 04:15 tempo osservato: Sereno Sereno 28 83 1015 vento: Nord O/NO 9.3
31 Agosto 2026 03:45 tempo osservato: Sereno Sereno 28 83 1015 vento: Nord O 11.1
31 Agosto 2026 03:15 tempo osservato: Sereno Sereno 28 88 1016 vento: Nord O/NO 9.3
31 Agosto 2026 02:45 tempo osservato: Sereno Sereno 28 88 1016 vento: Nord O/NO 11.1
31 Agosto 2026 02:15 tempo osservato: Sereno Sereno 29 83 1016 vento: Nord O 13
31 Agosto 2026 01:45 tempo osservato: Poco Nuvoloso Poco Nuvoloso 29 83 1016 vento: Nord O 18.5
31 Agosto 2026 01:15 tempo osservato: Sereno Sereno 29 74 1016 vento: Nord O 9.3
31 Agosto 2026 00:45 tempo osservato: Sereno Sereno 29 79 1016 vento: Nord O/SO 7.4
31 Agosto 2026 00:15 tempo osservato: Sereno Sereno 29 83 1016 vento: Nord O/SO 9.3
30 Agosto 2026 23:45 tempo osservato: Sereno Sereno 29 89 1016 vento: Nord SO 9.3
30 Agosto 2026 23:15 tempo osservato: Sereno Sereno 29 89 1016 vento: Nord O/SO 9.3
30 Agosto 2026 22:45 tempo osservato: Sereno Sereno 29 89 1016 vento: Nord N 5.5
30 Agosto 2026 22:15 tempo osservato: Poco Nuvoloso Poco Nuvoloso 29 89 1016 vento: Nord O/SO 7.4
30 Agosto 2026 21:45 tempo osservato: Poco Nuvoloso Poco Nuvoloso 29 89 1016 vento: Nord O 11.1
30 Agosto 2026 21:15 tempo osservato: Sereno Sereno 30 84 1016 vento: Nord N 5.5
30 Agosto 2026 20:45 tempo osservato: Sereno Sereno 30 79 1015 vento: Nord O 7.4
30 Agosto 2026 20:15 tempo osservato: Sereno Sereno 30 84 1015 vento: Nord O/SO 9.3
30 Agosto 2026 19:45 tempo osservato: Sereno Sereno 31 79 1015 vento: Nord SO 9.3
30 Agosto 2026 19:15 tempo osservato: Sereno Sereno 32 62 1015 vento: Nord SO 11.1
30 Agosto 2026 18:45 tempo osservato: Sereno Sereno 34 43 1015 vento: Nord SO 13
30 Agosto 2026 18:15 tempo osservato: Sereno Sereno 35 39 1015 vento: Nord SO 16.7
30 Agosto 2026 17:45 tempo osservato: Sereno Sereno 36 36 1015 vento: Nord S/SO 16.7
30 Agosto 2026 17:15 tempo osservato: Sereno Sereno 35 44 1015 vento: Nord S/SO 16.7
30 Agosto 2026 16:45 tempo osservato: Sereno Sereno 36 44 1015 vento: Nord S 16.7
30 Agosto 2026 16:15 tempo osservato: Sereno Sereno 38 42 1015 vento: Nord S/SE 11.1
30 Agosto 2026 15:45 tempo osservato: Sereno Sereno 38 45 1016 vento: Nord N 7.4
30 Agosto 2026 15:15 tempo osservato: Sereno Sereno 40 23 1016 vento: Nord O/NO 9.3
30 Agosto 2026 14:45 tempo osservato: Sereno Sereno 39 29 1016 vento: Nord SO 11.1
30 Agosto 2026 14:15 tempo osservato: Sereno Sereno 39 31 1016 vento: Nord O 13
30 Agosto 2026 13:45 tempo osservato: Sereno Sereno 37 44 1016 vento: Nord O/SO 11.1
30 Agosto 2026 13:15 tempo osservato: Sereno Sereno 36 50 1016 vento: Nord SO 16.7
30 Agosto 2026 12:45 tempo osservato: Sereno Sereno 36 47 1016 vento: Nord SO 16.7
30 Agosto 2026 12:15 tempo osservato: Sereno Sereno 39 29 1016 vento: Nord SO 20.3
30 Agosto 2026 11:45 tempo osservato: Sereno Sereno 39 29 1016 vento: Nord S/SO 11.1
30 Agosto 2026 11:15 tempo osservato: Sereno Sereno 38 39 1016 vento: Nord N 5.5
30 Agosto 2026 10:45 tempo osservato: Sereno Sereno 37 44 1016 vento: Nord N 5.5
30 Agosto 2026 10:15 tempo osservato: Sereno Sereno 34 59 1016 vento: Nord N 3.7
30 Agosto 2026 09:45 tempo osservato: Sereno Sereno 32 74 1016 vento: Nord N/NE 9.3
30 Agosto 2026 09:15 tempo osservato: Sereno Sereno 32 70 1016 vento: Nord N 5.5
30 Agosto 2026 08:45 tempo osservato: Poco Nuvoloso Poco Nuvoloso 31 74 1016 vento: Nord N 3.7
30 Agosto 2026 08:15 tempo osservato: Poco Nuvoloso Poco Nuvoloso 30 79 1015 vento: Nord N 3.7
30 Agosto 2026 07:45 tempo osservato: Sereno Sereno 28 83 1015 vento: Nord N 3.7